Time;durP1;ratioP1;P1;durP2;ratioP2;P2;SDS_P1;SDS_P2;PMS_P1;PMS_P2;Temp;Humidity;BMP_temperature;BMP_pressure;BME280_temperature;BME280_humidity;BME280_pressure;Samples;Min_cycle;Max_cycle;Signal;HPM_P1;HPM_P2
2023/03/12 01:46:35;;;;;;;12.90;8.00;;;;;;;10.53;100.00;98453.65;103089;1295;614972;-92
2023/03/12 01:49:14;;;;;;;9.80;6.70;;;;;;;10.52;100.00;98448.33;105596;1264;61871;-92
2023/03/12 01:51:45;;;;;;;12.90;7.50;;;;;;;10.52;100.00;98443.95;106537;1256;61315;-96
2023/03/12 01:54:23;;;;;;;13.60;8.00;;;;;;;10.50;100.00;98441.20;106192;1254;73525;-94
2023/03/12 01:56:50;;;;;;;8.90;7.10;;;;;;;10.48;100.00;98435.77;106274;1254;63662;-94
2023/03/12 01:59:47;;;;;;;11.00;7.00;;;;;;;10.47;100.00;98436.26;106414;1257;640392;-92
2023/03/12 02:02:14;;;;;;;6.90;6.20;;;;;;;10.47;100.00;98428.16;107184;1251;61654;-94
2023/03/12 02:04:42;;;;;;;8.20;6.20;;;;;;;10.47;100.00;98426.98;106936;1257;62284;-92
2023/03/12 02:07:11;;;;;;;12.90;6.70;;;;;;;10.45;100.00;98422.46;106870;1256;72184;-91
2023/03/12 02:09:46;;;;;;;9.00;7.50;;;;;;;10.43;100.00;98428.77;107072;1255;64831;-95
2023/03/12 02:12:17;;;;;;;10.10;6.20;;;;;;;10.40;100.00;98426.73;107051;1251;72963;-93
2023/03/12 02:14:47;;;;;;;17.00;7.20;;;;;;;10.39;100.00;98423.34;107206;1255;63012;-91
2023/03/12 02:17:16;;;;;;;11.00;6.70;;;;;;;10.37;100.00;98426.30;107670;1251;61246;-93
2023/03/12 02:20:17;;;;;;;7.90;6.80;;;;;;;10.38;100.00;98422.05;108564;1251;73982;-91
2023/03/12 02:22:48;;;;;;;8.50;6.30;;;;;;;10.38;100.00;98420.98;108137;1251;63740;-88
2023/03/12 02:25:41;;;;;;;9.50;6.70;;;;;;;10.39;100.00;98420.04;107619;1255;72497;-94
2023/03/12 02:28:12;;;;;;;9.80;6.70;;;;;;;10.39;100.00;98421.13;106857;1255;62908;-91
2023/03/12 02:30:47;;;;;;;14.00;7.30;;;;;;;10.37;100.00;98421.98;106874;1255;61147;-92
2023/03/12 02:33:23;;;;;;;10.80;6.70;;;;;;;10.35;100.00;98416.58;106610;1257;74188;-94
2023/03/12 02:35:51;;;;;;;11.70;6.80;;;;;;;10.32;100.00;98422.55;106832;1251;65496;-91
2023/03/12 02:38:33;;;;;;;12.50;8.10;;;;;;;10.30;100.00;98421.77;106642;1251;72921;-95
2023/03/12 02:41:13;;;;;;;16.50;7.80;;;;;;;10.28;100.00;98423.31;108675;1251;61954;-93
2023/03/12 02:43:45;;;;;;;11.30;7.80;;;;;;;10.27;100.00;98423.70;108024;1251;61123;-93
2023/03/12 02:46:12;;;;;;;14.10;8.80;;;;;;;10.28;100.00;98416.67;106999;1251;74013;-92
2023/03/12 02:48:39;;;;;;;16.20;8.40;;;;;;;10.28;100.00;98415.45;106879;1251;64190;-92
2023/03/12 02:51:06;;;;;;;10.40;8.70;;;;;;;10.27;100.00;98410.64;107415;1251;74228;-93
2023/03/12 02:53:34;;;;;;;11.20;8.40;;;;;;;10.26;100.00;98404.98;107191;1251;62751;-95
2023/03/12 02:56:03;;;;;;;15.20;10.50;;;;;;;10.24;100.00;98411.83;106992;1251;61320;-93
2023/03/12 02:58:33;;;;;;;13.70;10.80;;;;;;;10.23;100.00;98412.80;106604;1257;73868;-93
2023/03/12 03:01:06;;;;;;;13.10;10.10;;;;;;;10.23;100.00;98417.33;106926;1251;64795;-92
2023/03/12 03:03:33;;;;;;;16.40;9.80;;;;;;;10.23;100.00;98415.92;106539;1256;73347;-96
2023/03/12 03:06:00;;;;;;;13.90;9.30;;;;;;;10.21;100.00;98415.95;106637;1256;63095;-93
2023/03/12 03:08:34;;;;;;;12.70;8.60;;;;;;;10.22;100.00;98419.00;106726;1251;60007;-95
2023/03/12 03:11:02;;;;;;;15.10;8.90;;;;;;;10.21;100.00;98420.00;107743;1250;74743;-91
2023/03/12 03:13:29;;;;;;;13.80;9.40;;;;;;;10.18;100.00;98423.34;109766;1251;64927;-93
2023/03/12 03:15:58;;;;;;;12.60;9.30;;;;;;;10.15;100.00;98427.96;109131;1251;73654;-92
2023/03/12 03:18:28;;;;;;;12.50;8.20;;;;;;;10.14;100.00;98426.71;108713;1251;61845;-92
2023/03/12 03:20:57;;;;;;;11.80;9.00;;;;;;;10.15;100.00;98425.73;107678;1256;60653;-91
2023/03/12 03:23:26;;;;;;;9.10;7.30;;;;;;;10.15;100.00;98423.27;107180;1251;72938;-94
2023/03/12 03:25:53;;;;;;;10.20;7.00;;;;;;;10.13;100.00;98424.46;108888;1251;63624;-95
2023/03/12 03:28:22;;;;;;;11.10;7.10;;;;;;;10.10;100.00;98424.13;107026;1251;74002;-95
2023/03/12 03:31:06;;;;;;;11.30;5.50;;;;;;;10.04;100.00;98420.64;106774;1253;62276;-95
2023/03/12 03:33:37;;;;;;;9.10;6.40;;;;;;;10.02;100.00;98426.47;107742;1253;60136;-94
2023/03/12 03:36:05;;;;;;;6.80;5.60;;;;;;;9.97;100.00;98421.82;108886;1253;72232;-92
2023/03/12 03:38:40;;;;;;;8.20;5.00;;;;;;;9.92;100.00;98422.05;108237;1252;64857;-95
2023/03/12 03:41:17;;;;;;;7.90;5.80;;;;;;;9.90;100.00;98421.98;106848;1258;74020;-94
2023/03/12 03:43:46;;;;;;;5.90;4.70;;;;;;;9.89;100.00;98416.96;107399;1253;61913;-95
2023/03/12 03:46:16;;;;;;;5.50;4.90;;;;;;;9.89;100.00;98416.95;108108;1253;59635;-93
2023/03/12 03:48:49;;;;;;;4.30;3.10;;;;;;;9.89;100.00;98419.06;107560;1256;72912;-94
2023/03/12 03:51:24;;;;;;;2.40;2.20;;;;;;;9.87;100.00;98422.02;107285;1255;64596;-96
2023/03/12 03:53:57;;;;;;;;;;;;;;;9.85;100.00;98421.21;107225;1257;72746;-95
2023/03/12 03:56:31;;;;;;;3.10;1.80;;;;;;;9.82;100.00;98417.62;108081;1256;61984;-95
2023/03/12 03:59:03;;;;;;;2.50;2.30;;;;;;;9.79;100.00;98422.45;107828;1255;59864;-95
2023/03/12 04:01:53;;;;;;;1.80;1.70;;;;;;;9.76;100.00;98426.59;107538;1257;73946;-96
2023/03/12 04:04:27;;;;;;;2.00;1.70;;;;;;;9.73;100.00;98428.73;108012;1257;62962;-96
2023/03/12 04:07:20;;;;;;;1.90;1.70;;;;;;;9.71;100.00;98432.63;109205;1257;75069;-95
2023/03/12 04:10:22;;;;;;;5.90;4.50;;;;;;;9.69;100.00;98432.07;109300;1257;61761;-95
2023/03/12 04:13:11;;;;;;;8.10;5.80;;;;;;;9.69;100.00;98432.31;108835;1257;62017;-95
2023/03/12 04:15:49;;;;;;;1.60;1.30;;;;;;;9.69;100.00;98438.92;108777;1257;72973;-95
2023/03/12 04:18:32;;;;;;;1.70;1.20;;;;;;;9.69;100.00;98438.55;108121;1256;63958;-96
2023/03/12 04:21:03;;;;;;;3.50;1.30;;;;;;;9.68;100.00;98443.12;108909;1254;72913;-91
2023/03/12 04:23:31;;;;;;;2.50;2.10;;;;;;;9.67;100.00;98448.83;108475;1253;61867;-93
2023/03/12 04:25:59;;;;;;;2.80;2.60;;;;;;;9.66;100.00;98453.08;108908;1254;60169;-95
2023/03/12 04:28:51;;;;;;;3.90;2.00;;;;;;;9.64;100.00;98456.05;108754;1254;72322;-95
2023/03/12 04:31:20;;;;;;;2.70;2.50;;;;;;;9.66;100.00;98458.14;108463;1253;63730;-93
2023/03/12 04:33:54;;;;;;;3.20;2.80;;;;;;;9.68;100.00;98461.70;108927;1252;72930;-89
2023/03/12 04:36:41;;;;;;;3.90;2.70;;;;;;;9.69;100.00;98474.15;108405;1254;61960;-96
2023/03/12 04:39:18;;;;;;;1.80;1.30;;;;;;;9.70;100.00;98489.55;109202;1253;60101;-95
2023/03/12 04:42:52;;;;;;;1.20;1.10;;;;;;;9.71;100.00;98531.36;109163;1254;74416;-96
2023/03/12 04:45:34;;;;;;;1.40;0.90;;;;;;;9.74;100.00;98529.55;109769;1252;63038;-96
2023/03/12 04:48:21;;;;;;;6.10;3.60;;;;;;;9.78;100.00;98539.33;109688;1255;73439;-95
2023/03/12 04:51:06;;;;;;;6.40;4.90;;;;;;;9.83;100.00;98555.94;109294;1257;62036;-96
2023/03/12 04:53:35;;;;;;;8.70;6.20;;;;;;;9.85;100.00;98571.61;108939;1257;60774;-96
2023/03/12 04:56:29;;;;;;;16.60;10.40;;;;;;;9.84;100.00;98579.21;109162;1257;73079;-96
2023/03/12 04:59:11;;;;;;;17.20;11.60;;;;;;;9.83;100.00;98595.34;109261;1257;63735;-95
2023/03/12 05:01:46;;;;;;;29.30;14.20;;;;;;;9.83;100.00;98606.21;109311;1257;74962;-95
2023/03/12 05:04:21;;;;;;;22.70;15.40;;;;;;;9.85;100.00;98613.92;109326;1257;61072;-96
2023/03/12 05:07:02;;;;;;;26.80;17.50;;;;;;;9.87;100.00;98629.22;109423;1254;58999;-95
2023/03/12 05:09:43;;;;;;;25.50;19.00;;;;;;;9.90;100.00;98631.04;107550;1255;73548;-96
2023/03/12 05:12:17;;;;;;;35.70;23.10;;;;;;;9.87;100.00;98617.31;108245;1256;62682;-96
2023/03/12 05:15:30;;;;;;;39.90;24.80;;;;;;;9.87;100.00;98622.80;108568;1254;74059;-95
2023/03/12 05:18:20;;;;;;;37.80;27.00;;;;;;;9.86;100.00;98621.51;109398;1255;63508;-96
2023/03/12 05:21:32;;;;;;;41.70;27.40;;;;;;;9.85;100.00;98614.39;109647;1248;59392;-94
2023/03/12 05:24:57;;;;;;;42.00;28.60;;;;;;;9.89;100.00;98666.40;109495;1256;75809;-96
2023/03/12 05:28:01;;;;;;;41.40;24.60;;;;;;;9.96;100.00;98682.31;109321;1256;63970;-95
2023/03/12 05:30:35;;;;;;;34.10;17.10;;;;;;;10.02;100.00;98701.23;109415;1257;71664;-95
2023/03/12 05:33:04;;;;;;;16.20;10.20;;;;;;;10.07;100.00;98716.30;109124;1256;60082;-95
2023/03/12 05:35:39;;;;;;;12.10;6.20;;;;;;;10.09;100.00;98724.16;108389;1263;59326;-96
2023/03/12 05:38:10;;;;;;;6.70;4.00;;;;;;;10.11;100.00;98735.70;106933;1256;72852;-96
2023/03/12 05:40:40;;;;;;;3.20;2.90;;;;;;;10.11;99.77;98746.62;107754;1257;63787;-95
2023/03/12 05:43:25;;;;;;;3.40;3.10;;;;;;;10.09;99.26;98753.86;107824;1257;72684;-95
2023/03/12 05:46:08;;;;;;;4.10;3.30;;;;;;;10.04;98.85;98756.52;107686;1257;60464;-96
2023/03/12 05:48:37;;;;;;;3.00;2.70;;;;;;;9.98;98.33;98768.39;107114;1257;61322;-96
2023/03/12 05:51:10;;;;;;;3.10;2.80;;;;;;;9.93;98.15;98780.22;107288;1257;71998;-95
2023/03/12 05:53:53;;;;;;;2.90;2.60;;;;;;;9.85;97.33;98783.73;107499;1257;62381;-94
2023/03/12 05:56:20;;;;;;;4.30;3.10;;;;;;;9.78;97.07;98796.05;107553;1257;72638;-95
2023/03/12 05:58:48;;;;;;;3.10;2.80;;;;;;;9.71;96.76;98805.94;107562;1260;61930;-95
2023/03/12 06:01:27;;;;;;;4.00;3.40;;;;;;;9.64;96.27;98824.73;108380;1260;60089;-94
2023/03/12 06:04:23;;;;;;;;;;;;;;;9.60;95.97;98840.98;109100;1251;73236;-94
2023/03/12 06:07:25;;;;;;;6.10;5.50;;;;;;;9.48;94.56;98847.39;109383;1249;64722;-96
2023/03/12 06:11:01;;;;;;;6.50;5.90;;;;;;;9.30;93.34;98862.95;109110;1254;74673;-96
2023/03/12 06:13:48;;;;;;;7.80;6.30;;;;;;;9.19;92.87;98878.73;108888;1254;60168;-96
2023/03/12 06:19:58;;;;;;;7.10;6.40;;;;;;;8.92;92.57;98895.16;107542;1256;74727;-94
2023/03/12 06:22:36;;;;;;;7.00;6.30;;;;;;;8.86;93.31;98896.58;107925;1256;64662;-96
2023/03/12 06:25:09;;;;;;;7.30;6.60;;;;;;;8.83;93.61;98900.98;107178;1259;74157;-93
2023/03/12 06:27:38;;;;;;;8.30;7.60;;;;;;;8.78;93.43;98897.41;106651;1265;63560;-95
2023/03/12 06:30:07;;;;;;;7.90;7.20;;;;;;;8.71;93.35;98899.55;107149;1262;61245;-96
2023/03/12 06:32:36;;;;;;;9.80;8.90;;;;;;;8.69;93.07;98909.77;107548;1261;74864;-95
2023/03/12 06:35:05;;;;;;;9.10;8.20;;;;;;;8.65;92.83;98915.86;109126;1261;63306;-95
2023/03/12 06:37:34;;;;;;;9.20;8.40;;;;;;;8.57;92.46;98918.20;108986;1262;72631;-93
2023/03/12 06:40:11;;;;;;;11.10;10.10;;;;;;;8.49;92.34;98927.52;108616;1262;60452;-94
2023/03/12 06:42:53;;;;;;;10.00;9.10;;;;;;;8.42;92.10;98931.44;109019;1261;61950;-94
2023/03/12 06:45:21;;;;;;;9.50;8.60;;;;;;;8.42;92.28;98937.54;108994;1262;73559;-95
2023/03/12 06:47:54;;;;;;;9.40;8.50;;;;;;;8.41;92.48;98940.04;109070;1262;63643;-93
2023/03/12 06:50:23;;;;;;;10.60;9.70;;;;;;;8.42;92.35;98948.15;109013;1266;71380;-94
2023/03/12 06:52:51;;;;;;;9.30;8.50;;;;;;;8.44;92.28;98949.55;108801;1262;61865;-93
2023/03/12 06:55:18;;;;;;;11.40;10.10;;;;;;;8.48;91.95;98956.39;109025;1260;60243;-95
2023/03/12 06:57:50;;;;;;;11.70;10.60;;;;;;;8.58;91.86;98964.12;109153;1258;73762;-94
2023/03/12 07:04:15;;;;;;;10.70;9.80;;;;;;;8.86;90.11;98985.77;105326;1288;612769;-93
2023/03/12 07:07:13;;;;;;;11.60;10.50;;;;;;;8.91;87.86;98998.60;108127;1265;60570;-95
2023/03/12 07:10:13;;;;;;;9.90;9.00;;;;;;;8.81;87.05;99004.81;108253;1265;59296;-93
2023/03/12 07:12:56;;;;;;;11.90;10.80;;;;;;;8.76;87.30;99010.79;107633;1266;71238;-95
2023/03/12 07:15:33;;;;;;;11.00;9.90;;;;;;;8.74;86.84;99012.23;107400;1267;63089;-96
2023/03/12 07:18:07;;;;;;;10.30;9.40;;;;;;;8.73;86.12;99026.38;103823;1257;5676284;-96
2023/03/12 07:20:42;;;;;;;10.20;9.30;;;;;;;8.64;85.13;99041.36;107872;1257;60299;-95
2023/03/12 07:23:11;;;;;;;10.50;9.60;;;;;;;8.55;84.88;99050.23;108970;1257;60702;-94
2023/03/12 07:26:04;;;;;;;8.80;8.00;;;;;;;8.46;84.42;99059.65;107773;1257;72597;-96
2023/03/12 07:28:36;;;;;;;7.50;6.90;;;;;;;8.40;84.22;99073.11;108179;1257;63434;-96
2023/03/12 07:31:18;;;;;;;;;;;;;;;8.35;84.07;99081.88;107643;1257;71401;-93
2023/03/12 07:33:47;;;;;;;7.30;6.70;;;;;;;8.31;84.24;99094.90;107729;1257;62785;-95
2023/03/12 07:36:37;;;;;;;8.40;7.50;;;;;;;8.29;83.63;99104.92;107976;1257;60167;-95
2023/03/12 07:39:15;;;;;;;8.90;8.00;;;;;;;8.27;83.30;99120.39;107620;1257;73120;-95
2023/03/12 07:41:45;;;;;;;9.50;8.50;;;;;;;8.25;82.65;99123.38;107853;1257;63765;-94
2023/03/12 07:44:36;;;;;;;10.60;9.70;;;;;;;8.23;82.92;99132.90;108145;1257;71639;-95
2023/03/12 07:47:06;;;;;;;10.60;9.60;;;;;;;8.24;83.04;99146.73;108082;1257;61263;-93
2023/03/12 07:50:11;;;;;;;10.60;9.50;;;;;;;8.22;82.86;99152.28;107939;1257;61163;-93
2023/03/12 07:52:46;;;;;;;11.40;10.10;;;;;;;8.16;82.90;99155.52;107610;1257;73434;-92
2023/03/12 07:55:25;;;;;;;9.30;8.30;;;;;;;8.11;82.87;99164.06;108174;1257;64691;-95
2023/03/12 07:58:07;;;;;;;6.80;6.20;;;;;;;8.02;81.61;99169.05;108158;1261;72051;-93
2023/03/12 08:00:43;;;;;;;5.70;5.30;;;;;;;7.91;81.41;99179.98;107712;1257;60401;-95
2023/03/12 08:03:12;;;;;;;6.10;5.60;;;;;;;7.83;81.09;99186.44;108334;1257;60073;-95
2023/03/12 08:06:21;;;;;;;16.90;6.50;;;;;;;7.78;80.82;99192.19;108308;1256;74574;-96
2023/03/12 08:09:02;;;;;;;5.70;4.40;;;;;;;8.05;80.98;99198.75;108746;1257;63008;-94
2023/03/12 08:11:57;;;;;;;4.00;3.60;;;;;;;8.39;80.13;99209.71;108094;1254;71946;-94
2023/03/12 08:14:45;;;;;;;3.60;2.60;;;;;;;8.66;78.08;99213.00;107962;1261;63419;-95
2023/03/12 08:17:19;;;;;;;3.70;3.40;;;;;;;8.76;76.80;99218.38;108349;1262;60323;-92
2023/03/12 08:20:13;;;;;;;3.20;2.90;;;;;;;8.89;75.20;99223.26;108893;1262;72669;-92
2023/03/12 08:22:41;;;;;;;2.40;2.20;;;;;;;9.05;73.97;99235.48;108810;1262;63800;-93
2023/03/12 08:25:20;;;;;;;4.10;2.60;;;;;;;9.14;73.49;99247.19;108925;1262;72542;-94
2023/03/12 08:27:51;;;;;;;3.10;2.80;;;;;;;9.16;73.13;99251.23;108948;1262;60895;-94
2023/03/12 08:30:18;;;;;;;2.70;2.50;;;;;;;9.20;73.29;99249.19;108964;1262;60067;-93
2023/03/12 08:32:52;;;;;;;3.00;2.10;;;;;;;9.37;73.23;99260.02;109139;1259;72463;-93
2023/03/12 08:35:28;;;;;;;3.00;2.70;;;;;;;9.77;72.75;99263.30;109021;1253;64461;31
2023/03/12 08:38:32;;;;;;;1.40;1.30;;;;;;;10.38;69.62;99266.83;108837;1259;73840;-95
2023/03/12 08:41:57;;;;;;;1.60;1.50;;;;;;;10.52;65.02;99270.79;108983;1254;58912;-94
2023/03/12 08:44:41;;;;;;;1.70;1.60;;;;;;;10.31;65.47;99274.02;108395;1260;60166;-91
2023/03/12 08:47:09;;;;;;;5.80;4.80;;;;;;;10.06;65.56;99272.51;108421;1260;72305;-94
2023/03/12 08:49:42;;;;;;;2.20;1.90;;;;;;;9.81;66.15;99288.63;108262;1260;65219;-94
2023/03/12 08:52:47;;;;;;;3.10;2.80;;;;;;;9.81;66.61;99295.91;108905;1256;73804;-95
2023/03/12 08:55:37;;;;;;;8.50;5.50;;;;;;;9.77;65.52;99309.50;108865;1256;59526;-94
2023/03/12 08:59:01;;;;;;;10.50;6.60;;;;;;;9.69;66.00;99323.69;109016;1257;60723;-95
2023/03/12 09:02:46;;;;;;;18.30;9.70;;;;;;;9.39;65.36;99341.23;108487;1260;72851;-96
2023/03/12 09:06:15;;;;;;;12.20;6.70;;;;;;;9.10;66.58;99351.41;108433;1265;61481;-94
2023/03/12 09:09:16;;;;;;;11.00;4.90;;;;;;;8.82;66.91;99362.15;108794;1269;74036;-96
2023/03/12 09:15:01;;;;;;;2.90;1.90;;;;;;;8.54;66.94;99370.68;109070;1260;60690;-94
2023/03/12 09:18:15;;;;;;;3.40;1.60;;;;;;;8.48;66.81;99382.05;108976;1260;71847;-94
2023/03/12 09:20:59;;;;;;;1.70;1.10;;;;;;;8.39;67.03;99394.17;107820;1260;63683;-96
2023/03/12 09:23:42;;;;;;;1.60;1.20;;;;;;;8.24;66.77;99404.23;108163;1262;73066;-95
2023/03/12 09:27:17;;;;;;;1.80;1.00;;;;;;;8.00;66.00;99414.58;108463;1268;58249;-95
2023/03/12 10:00:50;;;;;;;1.70;1.40;;;;;;;6.83;66.04;99477.23;108288;1261;58457;-95
2023/03/12 10:11:04;;;;;;;2.00;1.80;;;;;;;6.67;67.51;99490.56;108428;1263;65528;-96
2023/03/12 10:18:22;;;;;;;4.50;2.80;;;;;;;6.63;68.10;99495.81;98077;1264;58920;31
2023/03/12 10:22:21;;;;;;;2.90;1.90;;;;;;;6.52;67.59;99512.17;105712;1267;59127;31
2023/03/12 10:29:24;;;;;;;2.40;1.80;;;;;;;6.49;69.55;99517.02;107883;1263;63836;-96
2023/03/12 10:52:13;;;;;;;5.00;3.50;;;;;;;6.47;69.26;99577.03;107565;1270;60711;-93
2023/03/12 11:13:07;;;;;;;3.20;2.30;;;;;;;5.94;70.86;99611.18;85390;1280;979782;-96
2023/03/12 12:08:28;;;;;;;2.20;2.00;;;;;;;5.47;68.40;99742.06;93706;1270;978945;-96
2023/03/12 13:31:53;;;;;;;10.00;7.20;;;;;;;4.07;66.97;99961.30;109632;1259;59495;-96
2023/03/12 14:10:45;;;;;;;6.50;3.80;;;;;;;3.95;67.48;100019.01;99192;1298;58874;-94
2023/03/12 14:21:14;;;;;;;1.80;1.70;;;;;;;3.84;67.92;100037.98;99365;1279;58134;-95
2023/03/12 14:32:36;;;;;;;3.10;2.70;;;;;;;3.89;68.49;100061.15;104992;1279;62497;-96
2023/03/12 14:36:40;;;;;;;20.70;10.60;;;;;;;3.84;68.86;100069.98;107249;1279;71359;-96
2023/03/12 14:40:44;;;;;;;3.70;2.20;;;;;;;3.78;68.69;100076.81;107219;1281;59652;-95
2023/03/12 15:14:35;;;;;;;2.20;2.00;;;;;;;3.49;68.98;100156.23;96506;1273;983642;-96
2023/03/12 21:14:38;;;;;;;7.90;4.80;;;;;;;1.39;73.56;100712.45;87957;1265;73703;31
2023/03/12 21:22:08;;;;;;;11.50;7.00;;;;;;;1.58;73.66;100723.08;103591;1276;58888;-96
2023/03/12 21:48:42;;;;;;;16.30;10.50;;;;;;;2.18;72.13;100755.02;106291;1285;58749;-96
2023/03/12 22:09:18;;;;;;;;;;;;;;;;;;;;;
2023/03/12 22:20:33;;;;;;;13.40;7.00;;;;;;;1.60;73.89;100795.91;104496;1289;73827;-95
2023/03/12 22:23:17;;;;;;;10.90;7.10;;;;;;;1.58;74.03;100798.02;104840;1289;59809;-94
2023/03/12 22:25:47;;;;;;;14.30;8.00;;;;;;;1.60;73.98;100803.14;104826;1283;59789;-94
2023/03/12 22:28:17;;;;;;;11.80;6.80;;;;;;;1.63;73.89;100810.16;106059;1283;73068;-92
2023/03/12 22:30:47;;;;;;;12.80;6.80;;;;;;;1.63;73.88;100810.84;106878;1283;63924;-93
2023/03/12 22:33:16;;;;;;;11.20;6.70;;;;;;;1.61;73.50;100813.80;105631;1283;73468;-93
2023/03/12 22:35:46;;;;;;;18.30;10.30;;;;;;;1.60;73.57;100818.33;105691;1281;60803;-91
2023/03/12 22:38:17;;;;;;;19.00;10.60;;;;;;;1.60;73.79;100825.39;104728;1283;61333;-94
2023/03/12 22:40:51;;;;;;;18.90;9.40;;;;;;;1.57;73.85;100827.52;104801;1283;73146;-94
2023/03/12 22:43:26;;;;;;;17.30;11.10;;;;;;;1.52;73.94;100825.70;105125;1283;64081;-95
2023/03/12 22:45:56;;;;;;;19.20;10.20;;;;;;;1.50;74.22;100827.31;105598;1282;73561;-93
2023/03/12 22:48:27;;;;;;;16.70;9.70;;;;;;;1.51;74.37;100831.41;105851;1282;60724;-95
2023/03/12 22:50:56;;;;;;;13.80;8.40;;;;;;;1.51;74.56;100834.51;104812;1282;60443;-93
2023/03/12 22:53:32;;;;;;;11.70;7.40;;;;;;;1.51;74.84;100837.44;106288;1278;73210;-94
2023/03/12 22:56:03;;;;;;;11.50;7.00;;;;;;;1.54;75.00;100846.86;105195;1282;63974;-95
2023/03/12 22:58:34;;;;;;;16.90;6.50;;;;;;;1.57;74.90;100856.63;106019;1282;72030;-94
2023/03/12 23:01:12;;;;;;;12.30;7.00;;;;;;;1.60;74.89;100858.27;106946;1283;60538;-96
2023/03/12 23:03:56;;;;;;;14.50;7.40;;;;;;;1.63;74.67;100861.34;107119;1282;61301;-94
2023/03/12 23:06:25;;;;;;;9.40;6.50;;;;;;;1.62;74.77;100868.24;107227;1282;73244;-95
2023/03/12 23:08:55;;;;;;;15.50;7.50;;;;;;;1.62;74.56;100869.79;107161;1282;64001;-96
2023/03/12 23:11:28;;;;;;;16.30;7.50;;;;;;;1.61;74.49;100875.85;107092;1282;72988;-95
2023/03/12 23:14:00;;;;;;;15.60;8.60;;;;;;;1.58;74.76;100878.83;107220;1282;59644;-94
2023/03/12 23:16:33;;;;;;;14.90;8.90;;;;;;;1.55;74.64;100882.02;107254;1282;58390;-95
2023/03/12 23:19:03;;;;;;;12.70;8.30;;;;;;;1.55;75.06;100889.39;107296;1282;73370;-96
2023/03/12 23:21:41;;;;;;;18.00;9.40;;;;;;;1.53;75.19;100891.52;107286;1282;64048;-93
2023/03/12 23:24:14;;;;;;;14.30;9.70;;;;;;;1.54;75.52;100902.70;107114;1282;72901;-95
2023/03/12 23:26:45;;;;;;;16.20;10.00;;;;;;;1.56;75.84;100904.02;107456;1279;59822;-92
2023/03/12 23:29:14;;;;;;;14.90;8.10;;;;;;;1.60;75.90;100905.33;107342;1279;60260;-94
2023/03/12 23:31:43;;;;;;;14.70;9.60;;;;;;;1.63;75.93;100913.03;107793;1279;72792;-94
2023/03/12 23:34:12;;;;;;;15.70;10.00;;;;;;;1.65;75.63;100914.20;107599;1282;62852;-94
2023/03/12 23:36:47;;;;;;;15.30;9.10;;;;;;;1.68;75.40;100917.77;107607;1279;74309;-94
2023/03/12 23:39:16;;;;;;;17.00;9.20;;;;;;;1.69;75.35;100922.58;105904;1279;59695;-95
2023/03/12 23:41:45;;;;;;;14.10;8.00;;;;;;;1.67;75.18;100925.37;107432;1279;59557;-93
2023/03/12 23:44:17;;;;;;;13.30;8.20;;;;;;;1.64;75.09;100926.63;107276;1279;72759;-92
2023/03/12 23:46:46;;;;;;;12.50;7.10;;;;;;;1.61;75.19;100928.92;107561;1278;64967;-94
2023/03/12 23:49:27;;;;;;;18.70;9.30;;;;;;;1.58;74.97;100928.27;106645;1279;72462;-93
2023/03/12 23:52:33;;;;;;;5.60;4.90;;;;;;;1.57;75.01;100926.75;107072;1280;60165;-94
2023/03/12 23:55:06;;;;;;;7.10;4.50;;;;;;;1.56;74.73;100928.65;106607;1279;60365;-94
2023/03/12 23:57:41;;;;;;;6.30;3.60;;;;;;;1.55;74.84;100925.77;104350;1279;73896;-96
